Time;durP1;ratioP1;P1;durP2;ratioP2;P2;SDS_P1;SDS_P2;PMS_P1;PMS_P2;Temp;Humidity;BMP_temperature;BMP_pressure;BME280_temperature;BME280_humidity;BME280_pressure;Samples;Min_cycle;Max_cycle;Signal;HPM_P1;HPM_P2
2021/09/10 00:01:51;;;;;;;21.55;11.13;;;;;;;14.16;72.50;101329.84;5065976;28;20033;-78
2021/09/10 00:04:16;;;;;;;14.23;10.00;;;;;;;14.16;72.56;101326.31;5070424;28;20111;-79
2021/09/10 00:06:42;;;;;;;12.85;9.38;;;;;;;14.11;72.66;101323.59;5063455;28;20029;-77
2021/09/10 00:09:08;;;;;;;14.60;10.30;;;;;;;14.07;73.16;101331.41;5062592;28;20016;-77
2021/09/10 00:11:33;;;;;;;13.32;10.57;;;;;;;14.08;73.19;101322.25;5063002;28;20082;-77
2021/09/10 00:13:59;;;;;;;14.65;10.00;;;;;;;14.12;72.85;101322.53;5063344;28;20466;-77
2021/09/10 00:16:24;;;;;;;13.10;9.65;;;;;;;14.16;72.60;101324.44;5059114;28;20021;-78
2021/09/10 00:18:50;;;;;;;16.20;10.57;;;;;;;14.16;72.80;101326.31;5064639;28;20812;-78
2021/09/10 00:21:16;;;;;;;12.40;9.35;;;;;;;14.16;72.92;101319.06;5065022;28;20041;-78
2021/09/10 00:23:42;;;;;;;14.40;10.57;;;;;;;14.16;72.88;101324.44;5062704;28;20506;-77
2021/09/10 00:26:08;;;;;;;16.50;10.82;;;;;;;14.07;74.45;101317.13;5067207;28;20017;-77
2021/09/10 00:28:33;;;;;;;16.73;10.52;;;;;;;14.10;74.28;101330.06;5056845;28;20032;-78
2021/09/10 00:30:59;;;;;;;16.58;11.25;;;;;;;14.14;74.01;101326.59;5061998;28;20501;-78
2021/09/10 00:33:25;;;;;;;14.23;11.05;;;;;;;14.17;74.45;101326.06;5063437;28;20093;-78
2021/09/10 00:35:50;;;;;;;17.55;11.30;;;;;;;14.23;74.40;101323.44;5064062;28;20955;-78
2021/09/10 00:38:16;;;;;;;14.65;10.80;;;;;;;14.27;74.11;101329.94;5061155;28;20021;-78
2021/09/10 00:40:41;;;;;;;12.48;9.95;;;;;;;14.28;74.02;101326.16;5063311;28;20925;-78
2021/09/10 00:43:06;;;;;;;14.85;10.45;;;;;;;14.32;73.55;101327.25;5065435;28;20585;-78
2021/09/10 00:45:32;;;;;;;13.27;9.82;;;;;;;14.29;73.50;101317.81;5067779;28;20025;-79
2021/09/10 00:47:58;;;;;;;14.60;10.02;;;;;;;14.24;73.82;101317.78;5063779;28;20024;-79
2021/09/10 00:50:24;;;;;;;13.82;9.68;;;;;;;14.22;73.94;101311.84;5064422;28;20021;-79
2021/09/10 00:52:49;;;;;;;13.13;10.38;;;;;;;14.17;74.05;101314.47;5065113;28;20040;-79
2021/09/10 00:55:23;;;;;;;17.13;10.45;;;;;;;14.13;74.21;101316.06;5065736;28;20082;-78
2021/09/10 00:57:49;;;;;;;16.63;10.68;;;;;;;14.13;75.56;101316.06;5061779;28;20032;-78
2021/09/10 01:00:15;;;;;;;16.25;10.90;;;;;;;14.25;74.77;101322.09;5064211;28;20533;-78
2021/09/10 01:02:41;;;;;;;18.73;10.55;;;;;;;14.33;75.05;101316.22;5061305;28;20028;-77
2021/09/10 01:05:06;;;;;;;14.13;10.63;;;;;;;14.36;75.00;101306.78;5063402;28;20028;-79
2021/09/10 01:07:32;;;;;;;14.05;10.20;;;;;;;14.42;75.35;101305.78;5060663;28;20039;-78
2021/09/10 01:09:58;;;;;;;16.40;10.95;;;;;;;14.50;74.63;101308.81;5065767;28;20046;-79
2021/09/10 01:12:25;;;;;;;13.60;11.23;;;;;;;14.58;74.73;101312.13;5075367;28;20025;-78
2021/09/10 01:14:51;;;;;;;15.68;9.73;;;;;;;14.65;74.13;101308.09;5058369;28;20024;-77
2021/09/10 01:17:16;;;;;;;17.35;10.30;;;;;;;14.74;73.98;101303.03;5060027;28;20510;-77
2021/09/10 01:19:42;;;;;;;16.17;10.57;;;;;;;14.78;73.73;101306.81;5056436;28;20364;-77
2021/09/10 01:22:07;;;;;;;15.52;10.23;;;;;;;14.78;74.38;101307.63;5063457;28;20056;-77
2021/09/10 01:24:37;;;;;;;17.80;10.30;;;;;;;14.85;74.03;101307.38;5057132;28;20040;-78
2021/09/10 01:27:03;;;;;;;17.25;10.75;;;;;;;14.89;74.16;101315.75;5057885;28;20057;-77
2021/09/10 01:29:32;;;;;;;14.75;10.40;;;;;;;14.93;74.25;101308.78;5058751;28;20391;-77
2021/09/10 01:31:58;;;;;;;19.95;10.15;;;;;;;14.99;73.79;101308.53;5059755;28;20516;-78
2021/09/10 01:34:23;;;;;;;18.13;10.95;;;;;;;15.07;73.29;101309.91;5062532;28;20107;-77
2021/09/10 01:36:49;;;;;;;13.70;10.27;;;;;;;15.04;73.67;101313.94;5062899;28;20682;-78
2021/09/10 01:39:15;;;;;;;16.13;10.00;;;;;;;15.18;72.78;101303.47;5065796;28;20024;-79
2021/09/10 01:41:40;;;;;;;14.63;10.30;;;;;;;15.26;72.16;101308.38;5058855;28;20120;-78
2021/09/10 01:44:06;;;;;;;13.98;9.90;;;;;;;15.22;72.79;101299.16;5062875;28;20039;-78
2021/09/10 01:46:32;;;;;;;15.15;10.00;;;;;;;15.20;72.79;101300.50;5062985;28;20035;-78
2021/09/10 01:48:57;;;;;;;16.15;10.80;;;;;;;15.19;72.78;101307.00;5063591;28;20668;-78
2021/09/10 01:51:30;;;;;;;17.13;10.73;;;;;;;15.16;72.83;101302.94;5062034;28;20039;-78
2021/09/10 01:53:57;;;;;;;14.18;10.70;;;;;;;15.16;72.84;101300.25;5063989;28;20020;-78
2021/09/10 01:56:23;;;;;;;13.18;10.45;;;;;;;15.13;72.92;101303.47;5058360;28;20047;-78
2021/09/10 01:58:49;;;;;;;14.35;9.50;;;;;;;15.13;72.87;101300.78;5059652;28;20059;-78
2021/09/10 02:01:23;;;;;;;14.25;9.95;;;;;;;15.10;73.18;101301.31;5061138;28;20028;-78
2021/09/10 02:03:49;;;;;;;;;;;;;;;14.84;75.82;101308.47;5062848;28;20039;-77
2021/09/10 02:06:14;;;;;;;16.23;10.40;;;;;;;14.91;74.84;101310.94;5061428;28;19912;-78
2021/09/10 02:08:40;;;;;;;17.52;10.82;;;;;;;14.94;74.42;101319.31;5062756;28;20036;-78
2021/09/10 02:11:06;;;;;;;14.40;10.60;;;;;;;14.77;76.21;101314.09;5058514;28;20016;-78
2021/09/10 02:13:31;;;;;;;18.17;10.65;;;;;;;14.73;76.24;101310.31;5056909;28;20587;-77
2021/09/10 02:15:57;;;;;;;12.38;9.63;;;;;;;14.74;75.53;101309.25;5061833;28;20050;-77
2021/09/10 02:18:22;;;;;;;13.55;10.05;;;;;;;14.80;74.71;101315.47;5060994;28;20455;-77
2021/09/10 02:20:48;;;;;;;14.00;10.38;;;;;;;14.73;75.47;101313.00;5061132;28;20028;-77
2021/09/10 02:23:13;;;;;;;14.30;11.27;;;;;;;14.65;75.98;101310.78;5061385;28;20021;-78
2021/09/10 02:25:39;;;;;;;16.05;10.77;;;;;;;14.62;76.33;101305.13;5058349;28;20028;-78
2021/09/10 02:28:04;;;;;;;14.20;9.85;;;;;;;14.63;75.78;101307.56;5066046;28;20024;-78
2021/09/10 02:30:30;;;;;;;16.10;10.80;;;;;;;14.69;75.25;101311.88;5060659;28;20028;-78
2021/09/10 02:32:55;;;;;;;17.00;10.07;;;;;;;14.69;75.51;101306.50;5058678;28;20539;-77
2021/09/10 02:35:21;;;;;;;15.27;9.68;;;;;;;14.68;75.66;101310.28;5059418;28;20058;-77
2021/09/10 02:37:46;;;;;;;13.15;9.55;;;;;;;14.77;74.92;101313.28;5055095;28;20036;-77
2021/09/10 02:40:12;;;;;;;16.70;10.52;;;;;;;14.86;74.22;101305.50;5062659;28;20090;-77
2021/09/10 02:42:38;;;;;;;13.05;9.10;;;;;;;14.92;73.82;101301.78;5059033;28;21981;-77
2021/09/10 02:45:04;;;;;;;16.20;9.30;;;;;;;14.97;73.48;101305.28;5056176;28;20398;-77
2021/09/10 02:47:30;;;;;;;16.23;10.07;;;;;;;14.99;73.16;101302.31;5062648;28;20036;-77
2021/09/10 02:49:56;;;;;;;14.02;9.65;;;;;;;14.92;73.85;101305.28;5059198;28;20047;-77
2021/09/10 02:52:21;;;;;;;12.95;9.88;;;;;;;14.98;73.47;101298.00;5059670;28;20081;-78
2021/09/10 02:54:47;;;;;;;17.25;10.73;;;;;;;15.01;73.35;101301.00;5066781;28;20057;-79
2021/09/10 02:57:13;;;;;;;12.27;9.80;;;;;;;15.02;72.98;101299.09;5064210;28;20508;-78
2021/09/10 02:59:39;;;;;;;16.13;10.23;;;;;;;15.04;72.75;101297.75;5059138;28;20028;-78
2021/09/10 03:02:04;;;;;;;16.10;10.25;;;;;;;15.09;72.76;101299.69;5064277;28;20021;-77
2021/09/10 03:04:30;;;;;;;14.02;10.27;;;;;;;15.10;73.29;101291.31;5054679;28;20020;-77
2021/09/10 03:06:55;;;;;;;17.40;10.65;;;;;;;15.11;73.06;101292.94;5057627;28;20096;-77
2021/09/10 03:09:21;;;;;;;15.60;11.00;;;;;;;15.13;72.94;101289.97;5059009;28;20117;-78
2021/09/10 03:11:46;;;;;;;18.63;10.82;;;;;;;15.13;73.20;101291.88;5060673;28;20162;-78
2021/09/10 03:14:12;;;;;;;17.50;10.43;;;;;;;15.15;73.23;101285.13;5061173;28;20113;-79
2021/09/10 03:16:37;;;;;;;13.88;9.85;;;;;;;15.14;73.20;101280.81;5064727;28;20029;-79
2021/09/10 03:19:03;;;;;;;14.40;10.27;;;;;;;15.15;72.98;101287.81;5066320;28;20043;-80
2021/09/10 03:21:28;;;;;;;18.13;10.13;;;;;;;15.16;73.23;101294.84;5066416;28;20051;-79
2021/09/10 03:23:54;;;;;;;18.80;10.38;;;;;;;15.17;73.28;101287.56;5066367;28;20020;-79
2021/09/10 03:26:20;;;;;;;14.38;10.07;;;;;;;15.10;73.52;101279.72;5070510;28;20115;-79
2021/09/10 03:28:45;;;;;;;12.95;10.43;;;;;;;15.06;73.55;101284.00;5064805;28;20094;-79
2021/09/10 03:31:11;;;;;;;13.18;9.88;;;;;;;14.98;74.02;101284.53;5071056;28;20033;-79
2021/09/10 03:33:36;;;;;;;11.65;9.73;;;;;;;14.87;74.67;101286.34;5066546;28;20025;-79
2021/09/10 03:36:02;;;;;;;15.52;9.77;;;;;;;14.56;77.18;101290.81;5069842;28;20044;-79
2021/09/10 03:38:28;;;;;;;19.02;11.48;;;;;;;14.54;77.08;101287.53;5068859;28;21910;-79
2021/09/10 03:40:53;;;;;;;12.65;9.80;;;;;;;14.63;76.02;101282.47;5067572;28;20025;-79
2021/09/10 03:43:19;;;;;;;12.77;9.63;;;;;;;14.55;76.53;101289.19;5068425;28;20552;-79
2021/09/10 03:45:44;;;;;;;13.48;9.93;;;;;;;14.47;77.33;101289.66;5069867;28;20032;-79
2021/09/10 03:48:10;;;;;;;15.50;10.20;;;;;;;14.39;77.66;101285.53;5070623;28;20039;-78
2021/09/10 03:50:35;;;;;;;14.15;10.68;;;;;;;14.47;76.80;101285.06;5066988;28;20068;-79
2021/09/10 03:53:01;;;;;;;16.60;10.07;;;;;;;14.48;76.50;101284.00;5064653;28;20479;-78
2021/09/10 03:55:26;;;;;;;14.40;9.90;;;;;;;14.50;76.13;101281.84;5061753;28;20024;-79
2021/09/10 03:57:52;;;;;;;13.05;9.32;;;;;;;14.59;75.48;101284.88;5066798;28;20029;-78
2021/09/10 04:00:17;;;;;;;12.95;9.43;;;;;;;14.58;75.17;101285.16;5063251;28;20021;-77
2021/09/10 04:02:43;;;;;;;15.25;9.98;;;;;;;14.54;75.58;101284.84;5064662;28;20032;-77
2021/09/10 04:05:09;;;;;;;15.27;10.52;;;;;;;14.48;75.45;101286.69;5063082;28;20051;-77
2021/09/10 04:07:35;;;;;;;15.43;9.95;;;;;;;14.52;75.23;101285.09;5063819;28;20490;-77
2021/09/10 04:10:00;;;;;;;14.05;10.52;;;;;;;14.52;75.19;101292.38;5064672;28;20027;-78
2021/09/10 04:12:26;;;;;;;12.13;10.10;;;;;;;14.45;75.23;101292.63;5065220;28;20116;-77
2021/09/10 04:14:51;;;;;;;13.93;11.25;;;;;;;14.32;75.99;101286.81;5063991;28;20034;-77
2021/09/10 04:17:18;;;;;;;14.93;10.48;;;;;;;14.33;76.04;101283.88;5067622;28;20032;-78
2021/09/10 04:19:43;;;;;;;14.95;10.80;;;;;;;14.36;75.85;101290.63;5062869;28;20025;-79
2021/09/10 04:22:08;;;;;;;17.10;9.98;;;;;;;14.33;75.70;101291.16;5065610;28;20028;-79
2021/09/10 04:24:34;;;;;;;15.43;11.35;;;;;;;14.32;75.62;101295.72;5060700;28;20036;-79
2021/09/10 04:26:59;;;;;;;14.00;10.32;;;;;;;14.31;75.61;101296.00;5060674;28;20017;-77
2021/09/10 04:29:25;;;;;;;16.67;11.50;;;;;;;14.28;75.86;101297.31;5060772;28;20048;-77
2021/09/10 04:31:50;;;;;;;16.83;10.80;;;;;;;14.19;76.70;101305.09;5061410;28;20032;-77
2021/09/10 04:34:16;;;;;;;14.40;10.32;;;;;;;14.17;76.64;101306.41;5059052;28;20153;-77
2021/09/10 04:36:41;;;;;;;15.48;10.98;;;;;;;14.00;79.20;101313.81;5063473;28;20029;-78
2021/09/10 04:39:07;;;;;;;16.92;10.80;;;;;;;13.93;79.81;101319.41;5064217;28;20078;-77
2021/09/10 04:41:32;;;;;;;13.55;10.98;;;;;;;13.99;79.46;101313.00;5062805;28;20033;-77
2021/09/10 04:43:59;;;;;;;15.35;11.10;;;;;;;13.93;80.01;101322.09;5064349;28;20394;-77
2021/09/10 04:46:24;;;;;;;18.60;11.32;;;;;;;13.91;80.05;101324.25;5061367;28;20103;-78
2021/09/10 04:48:50;;;;;;;16.98;11.15;;;;;;;14.05;78.56;101308.47;5060039;28;20170;-77
2021/09/10 04:51:15;;;;;;;14.82;10.27;;;;;;;14.16;77.76;101305.59;5063764;28;20028;-78
2021/09/10 04:53:41;;;;;;;14.20;10.60;;;;;;;14.20;76.98;101295.94;5061344;28;20106;-78
2021/09/10 04:56:06;;;;;;;17.77;11.25;;;;;;;14.23;76.77;101297.28;5065481;28;20025;-78
2021/09/10 04:58:33;;;;;;;19.30;10.13;;;;;;;14.25;76.56;101292.47;5064498;28;20036;-78
2021/09/10 05:00:58;;;;;;;16.25;11.93;;;;;;;14.26;76.56;101301.34;5054218;28;20094;-78
2021/09/10 05:03:24;;;;;;;21.27;11.13;;;;;;;14.17;77.66;101311.78;5056924;28;20371;-77
2021/09/10 05:05:49;;;;;;;15.45;10.48;;;;;;;13.98;79.89;101303.28;5065579;28;20032;-79
2021/09/10 05:08:15;;;;;;;15.57;10.98;;;;;;;14.03;79.72;101306.03;5059450;28;20026;-78
2021/09/10 05:10:40;;;;;;;14.85;10.13;;;;;;;14.10;79.73;101305.81;5064223;28;20032;-77
2021/09/10 05:13:06;;;;;;;16.55;10.40;;;;;;;14.32;78.19;101306.50;5060892;28;20028;-77
2021/09/10 05:15:31;;;;;;;13.68;9.95;;;;;;;14.50;77.30;101308.00;5061917;28;20061;-78
2021/09/10 05:17:57;;;;;;;17.75;10.32;;;;;;;14.72;76.15;101314.09;5059114;28;20055;-77
2021/09/10 05:20:23;;;;;;;13.77;9.35;;;;;;;14.88;75.70;101311.44;5062020;28;20036;-77
2021/09/10 05:22:50;;;;;;;16.80;9.63;;;;;;;15.03;74.89;101304.22;5060154;28;20075;-77
2021/09/10 05:25:15;;;;;;;18.55;10.15;;;;;;;15.18;74.46;101303.47;5056886;28;20025;-78
2021/09/10 05:27:41;;;;;;;14.95;9.20;;;;;;;15.26;74.30;101308.38;5059810;28;20063;-77
2021/09/10 05:30:07;;;;;;;14.70;9.05;;;;;;;15.39;73.68;101307.03;5055156;28;20446;-77
2021/09/10 05:32:33;;;;;;;15.50;9.68;;;;;;;15.50;73.29;101311.41;5060028;28;20034;-77
2021/09/10 05:34:58;;;;;;;14.00;9.52;;;;;;;15.47;73.76;101316.53;5057213;28;20115;-78
2021/09/10 05:37:24;;;;;;;13.45;9.05;;;;;;;15.71;73.03;101320.38;5060859;28;20020;-78
2021/09/10 05:39:49;;;;;;;13.23;9.45;;;;;;;15.89;72.27;101325.25;5062407;28;20024;-78
2021/09/10 05:42:15;;;;;;;13.18;9.00;;;;;;;16.17;71.39;101325.81;5059904;28;20028;-77
2021/09/10 05:44:40;;;;;;;15.18;9.13;;;;;;;16.68;69.33;101320.34;5055651;28;20029;-77
2021/09/10 05:47:06;;;;;;;13.45;9.35;;;;;;;17.27;67.13;101322.31;5058681;28;20028;-77
2021/09/10 05:49:32;;;;;;;12.68;9.05;;;;;;;17.75;65.50;101324.19;5051269;28;20062;-78
2021/09/10 05:51:57;;;;;;;12.57;8.05;;;;;;;18.00;64.37;101328.63;5060662;28;20650;-78
2021/09/10 05:54:25;;;;;;;12.43;9.23;;;;;;;18.19;63.61;101328.72;5059637;28;20078;-79
2021/09/10 05:56:51;;;;;;;12.35;8.90;;;;;;;18.10;63.44;101314.16;5061082;28;20599;-77
2021/09/10 05:59:17;;;;;;;11.25;8.07;;;;;;;17.86;64.32;101324.94;5060476;28;20125;-78
2021/09/10 06:01:45;;;;;;;16.00;8.70;;;;;;;17.69;64.79;101328.03;5070780;28;20147;-78
2021/09/10 06:04:11;;;;;;;13.50;8.70;;;;;;;17.50;65.61;101332.47;5059107;28;20024;-78
2021/09/10 06:06:37;;;;;;;11.63;8.75;;;;;;;17.45;66.05;101327.88;5060745;28;20039;-78
2021/09/10 06:09:03;;;;;;;13.43;8.13;;;;;;;17.57;65.83;101332.94;5058990;28;20043;-77
2021/09/10 06:11:29;;;;;;;14.75;8.90;;;;;;;17.50;66.10;101335.16;5059972;28;20032;-77
2021/09/10 06:13:56;;;;;;;11.93;8.02;;;;;;;17.49;66.10;101337.06;5062277;28;20033;-77
2021/09/10 06:16:22;;;;;;;11.68;8.25;;;;;;;17.60;65.88;101343.25;5062382;28;20505;-77
2021/09/10 06:18:47;;;;;;;11.82;7.90;;;;;;;17.68;65.68;101350.00;5060327;28;20028;-78
2021/09/10 06:21:13;;;;;;;13.38;8.68;;;;;;;17.47;66.88;101350.09;5068158;28;20056;-79
2021/09/10 06:23:39;;;;;;;11.63;8.93;;;;;;;17.37;67.62;101357.44;5065998;28;20165;-78
2021/09/10 06:26:05;;;;;;;11.35;9.13;;;;;;;17.64;66.46;101355.13;5066543;28;20021;-78
2021/09/10 06:28:31;;;;;;;13.98;9.15;;;;;;;17.87;66.12;101355.56;5059549;28;20089;-78
2021/09/10 06:30:56;;;;;;;11.02;8.63;;;;;;;18.08;65.49;101357.81;5056163;28;20035;-78
2021/09/10 06:33:23;;;;;;;11.85;8.25;;;;;;;18.25;65.14;101357.41;5061972;28;20032;-78
2021/09/10 06:35:48;;;;;;;14.15;9.18;;;;;;;18.46;64.81;101360.75;5057119;28;20486;-78
2021/09/10 06:38:14;;;;;;;15.68;9.00;;;;;;;18.51;64.06;101355.31;5054305;28;20058;-78
2021/09/10 06:40:39;;;;;;;15.10;9.32;;;;;;;18.50;64.71;101355.59;5060281;28;20471;-79
2021/09/10 06:43:06;;;;;;;13.18;9.20;;;;;;;18.69;64.03;101356.50;5059487;28;20054;-79
2021/09/10 06:45:32;;;;;;;11.27;8.48;;;;;;;18.92;63.62;101363.03;5059402;28;20021;-78
2021/09/10 06:47:57;;;;;;;11.50;8.10;;;;;;;19.13;63.32;101358.19;5062135;28;20475;-79
2021/09/10 06:50:23;;;;;;;12.57;8.98;;;;;;;19.33;62.87;101368.78;5057370;28;20032;-79
2021/09/10 06:52:49;;;;;;;12.85;9.20;;;;;;;19.46;62.62;101365.34;5063466;28;20074;-78
2021/09/10 06:55:14;;;;;;;15.13;10.32;;;;;;;19.61;62.15;101367.91;5065328;28;20503;-79
2021/09/10 06:57:41;;;;;;;13.40;9.68;;;;;;;19.74;61.89;101363.63;5059263;28;20036;-80
2021/09/10 07:00:08;;;;;;;14.93;9.73;;;;;;;19.82;61.68;101362.97;5066943;28;20021;-79
2021/09/10 07:02:33;;;;;;;15.38;9.63;;;;;;;20.03;61.69;101363.47;5067163;28;20025;-79
2021/09/10 07:04:59;;;;;;;12.90;9.02;;;;;;;19.97;61.54;101370.09;5064716;28;20032;-79
2021/09/10 07:07:24;;;;;;;12.10;8.57;;;;;;;20.13;61.34;101360.59;5063107;28;20462;-80
2021/09/10 07:09:50;;;;;;;12.80;9.35;;;;;;;20.39;60.67;101362.88;5057755;28;20107;-80
2021/09/10 07:12:17;;;;;;;14.57;8.70;;;;;;;20.49;60.08;101366.25;5061129;28;20031;-79
2021/09/10 07:14:43;;;;;;;14.52;8.30;;;;;;;20.38;60.58;101367.50;5062383;28;20024;-79
2021/09/10 07:17:09;;;;;;;10.95;8.57;;;;;;;20.21;60.96;101373.50;5061204;28;20493;-79
2021/09/10 07:19:35;;;;;;;13.45;9.48;;;;;;;20.18;60.73;101368.66;5059622;28;20617;-79
2021/09/10 07:22:00;;;;;;;11.90;9.38;;;;;;;20.22;61.02;101375.09;5069245;28;20033;-79
2021/09/10 07:24:26;;;;;;;15.15;9.50;;;;;;;20.19;61.45;101374.91;5064369;28;20497;-79
2021/09/10 07:26:52;;;;;;;18.08;9.20;;;;;;;20.48;61.08;101370.09;5060734;28;20020;-79
2021/09/10 07:29:20;;;;;;;13.30;9.50;;;;;;;20.73;60.22;101382.41;5062602;28;20219;-79
2021/09/10 07:31:47;;;;;;;11.90;9.05;;;;;;;20.65;60.09;101377.69;5064109;28;20032;-79
2021/09/10 07:34:13;;;;;;;12.52;9.13;;;;;;;20.60;60.63;101380.47;5065356;28;20086;-79
2021/09/10 07:36:38;;;;;;;12.70;9.13;;;;;;;20.66;60.69;101376.56;5059697;28;20025;-78
2021/09/10 07:39:04;;;;;;;11.57;9.63;;;;;;;20.85;60.14;101376.50;5061229;28;20031;-79
2021/09/10 07:41:29;;;;;;;13.75;9.75;;;;;;;20.57;60.32;101375.63;5060097;28;20032;-78
2021/09/10 07:43:55;;;;;;;12.65;9.32;;;;;;;20.96;60.07;101375.16;5062050;28;20035;-79
2021/09/10 07:46:20;;;;;;;12.70;9.30;;;;;;;21.19;59.66;101383.47;5056573;28;20581;-79
2021/09/10 07:48:46;;;;;;;13.90;10.32;;;;;;;21.38;59.07;101384.19;5059878;28;20098;-79
2021/09/10 07:51:11;;;;;;;11.43;9.60;;;;;;;21.50;59.15;101386.34;5051098;28;20035;-78
2021/09/10 07:53:37;;;;;;;13.45;9.13;;;;;;;21.39;59.11;101389.31;5054583;28;20039;-78
2021/09/10 07:56:03;;;;;;;12.85;9.13;;;;;;;21.18;60.03;101390.78;5055784;28;20656;-78
2021/09/10 07:58:28;;;;;;;12.88;10.38;;;;;;;21.18;60.20;101396.25;5058404;28;20052;-79
2021/09/10 08:00:54;;;;;;;15.90;10.27;;;;;;;21.39;59.91;101392.03;5056085;28;20502;-79
2021/09/10 08:03:20;;;;;;;12.32;10.20;;;;;;;21.58;59.36;101394.63;5061301;28;20024;-78
2021/09/10 08:05:45;;;;;;;12.63;9.85;;;;;;;21.76;59.16;101398.34;5060093;28;20024;-78
2021/09/10 08:08:11;;;;;;;15.10;10.18;;;;;;;21.97;58.90;101395.94;5056408;28;20651;-79
2021/09/10 08:10:36;;;;;;;13.15;10.63;;;;;;;22.22;58.59;101394.53;5059736;28;20029;-79
2021/09/10 08:13:02;;;;;;;13.63;10.10;;;;;;;22.21;58.72;101390.19;5059546;28;20060;-78
2021/09/10 08:15:28;;;;;;;16.20;10.80;;;;;;;22.23;58.35;101393.41;5059722;28;20047;-79
2021/09/10 08:17:53;;;;;;;14.73;10.35;;;;;;;22.33;58.40;101389.66;5059632;28;20131;-78
2021/09/10 08:20:19;;;;;;;18.60;10.45;;;;;;;22.47;58.48;101398.56;5059946;28;20082;-78
2021/09/10 08:22:46;;;;;;;15.05;10.05;;;;;;;22.69;58.17;101398.53;5057659;28;20090;-79
2021/09/10 08:25:12;;;;;;;13.40;9.75;;;;;;;22.95;57.68;101401.41;5061900;28;20032;-79
2021/09/10 08:27:38;;;;;;;14.15;9.85;;;;;;;23.04;57.48;101399.50;5059127;28;20036;-78
2021/09/10 08:30:06;;;;;;;14.38;9.88;;;;;;;23.31;56.88;101398.47;5060977;28;20259;-79
2021/09/10 08:32:32;;;;;;;14.85;9.40;;;;;;;23.47;56.41;101409.75;5054546;28;20621;-79
2021/09/10 08:34:57;;;;;;;13.48;9.93;;;;;;;23.48;56.23;101406.69;5060692;28;20040;-79
2021/09/10 08:37:23;;;;;;;13.85;10.50;;;;;;;23.74;55.58;101409.53;5061914;28;20024;-78
2021/09/10 08:39:49;;;;;;;15.68;10.52;;;;;;;23.68;55.30;101401.75;5061569;28;20060;-81
2021/09/10 08:42:15;;;;;;;11.77;9.95;;;;;;;23.92;54.70;101409.53;5065065;28;21985;-80
2021/09/10 08:44:42;;;;;;;12.52;9.73;;;;;;;24.04;54.50;101399.53;5060330;28;20036;-79
2021/09/10 08:47:09;;;;;;;13.65;9.82;;;;;;;24.20;54.63;101408.03;5065296;28;20033;-79
2021/09/10 08:49:35;;;;;;;14.50;9.93;;;;;;;24.25;54.62;101407.09;5068792;28;20017;-82
2021/09/10 08:52:01;;;;;;;13.35;10.20;;;;;;;24.41;53.78;101403.53;5062191;28;20067;-81
2021/09/10 08:54:27;;;;;;;13.27;9.68;;;;;;;24.51;53.72;101399.66;5057383;28;20124;-83
2021/09/10 08:56:54;;;;;;;14.95;9.52;;;;;;;24.57;52.75;101395.59;5062306;28;20044;-85
2021/09/10 08:59:20;;;;;;;15.88;9.90;;;;;;;24.47;53.28;101398.69;5059195;28;20028;-83
2021/09/10 09:01:48;;;;;;;15.40;9.93;;;;;;;24.85;52.64;101387.78;5065791;28;20228;-83
2021/09/10 09:04:13;;;;;;;12.63;9.90;;;;;;;24.80;53.17;101398.94;5055193;28;20319;-83
2021/09/10 09:06:39;;;;;;;14.95;9.43;;;;;;;24.77;53.22;101391.34;5065437;28;20112;-82
2021/09/10 09:09:04;;;;;;;15.80;10.10;;;;;;;24.52;53.56;101400.44;5061992;28;20067;-83
2021/09/10 09:11:30;;;;;;;13.63;9.10;;;;;;;24.51;54.46;101398.84;5050466;28;20056;-83
2021/09/10 09:13:57;;;;;;;13.57;9.45;;;;;;;24.81;53.74;101402.47;5066787;28;20028;-88
2021/09/10 09:16:26;;;;;;;14.80;10.00;;;;;;;24.66;53.54;101404.59;5066013;28;20053;-87
2021/09/10 09:19:03;;;;;;;12.63;9.43;;;;;;;24.94;52.93;101401.44;5061633;28;20028;-86
2021/09/10 09:21:39;;;;;;;13.35;9.30;;;;;;;25.39;52.69;101395.44;5070147;28;20025;-85
2021/09/10 09:24:14;;;;;;;13.10;10.00;;;;;;;25.29;51.65;101402.88;5062705;28;20490;-82
2021/09/10 09:26:41;;;;;;;13.80;10.00;;;;;;;25.44;52.16;101404.25;5060761;28;20032;-83
2021/09/10 09:29:17;;;;;;;13.43;10.65;;;;;;;25.58;51.40;101393.03;5057809;28;20536;-83
2021/09/10 09:31:53;;;;;;;14.63;10.25;;;;;;;25.41;51.87;101399.44;5067163;28;20057;-85
2021/09/10 09:34:49;;;;;;;11.65;10.20;;;;;;;25.38;52.45;101399.31;5066603;28;20116;-84
2021/09/10 09:37:16;;;;;;;13.05;9.60;;;;;;;25.46;52.28;101401.19;5067795;28;20089;-85
2021/09/10 09:40:09;;;;;;;13.05;9.30;;;;;;;25.68;51.68;101400.91;5064929;28;20033;-82
2021/09/10 09:42:35;;;;;;;14.18;9.90;;;;;;;25.98;51.41;101398.88;5055823;28;20045;-83
2021/09/10 09:45:10;;;;;;;12.38;9.80;;;;;;;26.19;50.48;101399.66;5068587;28;20036;-82
2021/09/10 09:47:37;;;;;;;13.95;9.73;;;;;;;26.25;50.55;101403.00;5069565;28;20024;-82
2021/09/10 09:50:05;;;;;;;12.68;10.05;;;;;;;26.31;50.57;101393.41;5066711;28;20035;-84
2021/09/10 09:52:31;;;;;;;14.48;10.32;;;;;;;26.30;50.73;101393.75;5066590;28;20046;-82
2021/09/10 09:54:58;;;;;;;10.63;9.50;;;;;;;26.51;50.21;101391.75;5058695;28;20062;-83
2021/09/10 09:57:24;;;;;;;11.27;8.82;;;;;;;26.67;50.50;101394.66;5065256;28;20146;-83
2021/09/10 09:59:51;;;;;;;13.23;9.90;;;;;;;26.56;49.92;101394.28;5061502;28;20032;-84
2021/09/10 10:02:17;;;;;;;12.45;9.40;;;;;;;26.82;49.96;101393.19;5063167;28;20035;-84
2021/09/10 10:04:42;;;;;;;11.60;9.32;;;;;;;26.98;49.49;101394.13;5067610;28;20033;-83
2021/09/10 10:07:10;;;;;;;12.32;8.75;;;;;;;27.14;49.27;101394.28;5065982;28;20028;-83
2021/09/10 10:09:41;;;;;;;12.73;9.18;;;;;;;27.03;48.46;101396.66;5069712;28;20104;-83
2021/09/10 10:12:08;;;;;;;10.85;9.20;;;;;;;26.90;49.18;101393.06;5064855;28;20025;-84
2021/09/10 10:14:37;;;;;;;12.10;10.18;;;;;;;26.82;49.34;101394.00;5064717;28;20037;-84
2021/09/10 10:17:03;;;;;;;14.23;8.95;;;;;;;26.84;49.20;101390.91;5066365;28;20059;-83
2021/09/10 10:19:36;;;;;;;11.65;9.43;;;;;;;26.88;48.98;101387.13;5066276;28;20071;-83
2021/09/10 10:22:07;;;;;;;11.50;8.80;;;;;;;27.21;49.23;101384.28;5068062;28;20029;-87
2021/09/10 10:24:47;;;;;;;13.98;9.73;;;;;;;27.28;48.68;101381.72;5063348;28;20039;-83
2021/09/10 10:27:37;;;;;;;14.85;9.13;;;;;;;27.28;47.90;101380.94;5063667;28;20028;-83
2021/09/10 10:30:06;;;;;;;10.07;8.48;;;;;;;27.30;47.92;101384.16;5064517;28;20122;-84
2021/09/10 10:32:33;;;;;;;10.90;8.30;;;;;;;27.20;48.43;101385.44;5063283;28;20048;-84
2021/09/10 10:35:17;;;;;;;12.18;8.75;;;;;;;27.48;48.82;101384.72;5062607;28;20043;-84
2021/09/10 10:38:05;;;;;;;9.00;8.00;;;;;;;27.97;47.30;101377.09;5057085;28;20418;-85
2021/09/10 10:40:51;;;;;;;12.00;8.30;;;;;;;28.07;46.48;101378.56;5057594;28;20031;-84
2021/09/10 10:43:24;;;;;;;14.02;8.15;;;;;;;27.99;46.87;101381.13;5059999;28;20028;-83
2021/09/10 10:45:49;;;;;;;12.07;7.78;;;;;;;27.97;46.73;101374.34;5064047;28;20044;-84
2021/09/10 10:48:33;;;;;;;11.57;7.63;;;;;;;28.29;46.54;101376.06;5062856;28;20130;-84
2021/09/10 10:51:20;;;;;;;9.65;8.55;;;;;;;28.35;46.03;101373.03;5063971;28;20036;-83
2021/09/10 10:53:45;;;;;;;9.60;7.50;;;;;;;28.31;45.51;101378.47;5065172;28;20032;-84
2021/09/10 10:56:26;;;;;;;11.30;8.27;;;;;;;28.49;45.49;101374.22;5063535;28;20406;-84
2021/09/10 10:59:21;;;;;;;11.00;8.15;;;;;;;28.31;45.87;101372.16;5059099;28;20127;-85
2021/09/10 11:05:16;;;;;;;11.10;7.32;;;;;;;28.78;45.41;101375.75;5029718;28;20139;-84
2021/09/10 11:07:42;;;;;;;10.90;8.32;;;;;;;29.09;44.09;101376.91;5064177;28;20477;-85
2021/09/10 11:10:10;;;;;;;10.25;8.13;;;;;;;29.29;44.16;101373.03;5061799;28;20025;-84
2021/09/10 11:12:38;;;;;;;11.52;8.50;;;;;;;29.23;44.15;101370.91;5065448;28;20023;-84
2021/09/10 11:15:16;;;;;;;12.88;8.18;;;;;;;29.63;43.61;101374.22;5059619;28;20081;-84
2021/09/10 11:17:43;;;;;;;12.40;8.35;;;;;;;29.71;42.32;101370.41;5056112;28;20024;-84